createdAt,value
2022-12-17T00:00:57.011Z,-0.70
2022-12-17T00:05:17.083Z,-0.70
2022-12-17T00:09:37.272Z,-0.70
2022-12-17T00:13:57.339Z,-0.70
2022-12-17T00:18:21.030Z,-0.60
2022-12-17T00:22:41.407Z,-0.60
2022-12-17T00:27:01.640Z,-0.60
2022-12-17T00:31:22.109Z,-0.70
2022-12-17T00:35:42.562Z,-0.80
2022-12-17T00:40:02.586Z,-0.90
2022-12-17T00:44:22.699Z,-1.00
2022-12-17T00:48:43.039Z,-1.00
2022-12-17T00:53:03.215Z,-0.80
2022-12-17T00:57:23.206Z,-0.90
2022-12-17T01:01:43.454Z,-1.20
2022-12-17T01:06:03.886Z,-1.30
2022-12-17T01:10:24.348Z,-1.40
2022-12-17T01:14:44.973Z,-1.30
2022-12-17T01:19:05.112Z,-1.40
2022-12-17T01:23:26.178Z,-1.50
2022-12-17T01:27:46.399Z,-1.40
2022-12-17T01:32:06.617Z,-1.40
2022-12-17T01:36:26.764Z,-1.40
2022-12-17T01:40:46.875Z,-1.50
2022-12-17T01:45:09.092Z,-1.60
2022-12-17T01:49:29.939Z,-1.60
2022-12-17T01:53:52.906Z,-1.70
2022-12-17T01:58:13.025Z,-1.60
2022-12-17T02:02:33.222Z,-1.70
2022-12-17T02:07:15.457Z,-1.70
2022-12-17T02:11:38.414Z,-1.80
2022-12-17T02:16:05.544Z,-1.90
2022-12-17T02:20:39.939Z,-1.90
2022-12-17T02:25:14.257Z,-2.10
2022-12-17T02:29:35.265Z,-2.10
2022-12-17T02:33:55.521Z,-2.20
2022-12-17T02:38:15.542Z,-2.20
2022-12-17T02:42:35.984Z,-2.30
2022-12-17T02:46:57.696Z,-2.50
2022-12-17T02:51:17.792Z,-2.60
2022-12-17T02:55:37.669Z,-2.70
2022-12-17T02:59:57.813Z,-2.70
2022-12-17T03:04:17.872Z,-2.80
2022-12-17T03:08:37.989Z,-3.00
2022-12-17T03:12:58.115Z,-3.10
2022-12-17T03:17:18.817Z,-3.20
2022-12-17T03:21:39.530Z,-3.40
2022-12-17T03:25:59.684Z,-3.50
2022-12-17T03:30:19.937Z,-3.60
2022-12-17T03:34:39.959Z,-3.50
2022-12-17T03:39:00.034Z,-3.50
2022-12-17T03:43:26.761Z,-3.60
2022-12-17T03:47:46.936Z,-3.60
2022-12-17T03:52:07.045Z,-3.70
2022-12-17T03:56:27.110Z,-3.90
2022-12-17T04:00:47.253Z,-3.80
2022-12-17T04:05:07.271Z,-4.20
2022-12-17T04:09:27.378Z,-4.40
2022-12-17T04:13:48.196Z,-4.40
2022-12-17T04:18:08.608Z,-4.60
2022-12-17T04:22:28.683Z,-4.80
2022-12-17T04:26:51.413Z,-4.70
2022-12-17T04:31:12.511Z,-4.80
2022-12-17T04:35:32.576Z,-4.70
2022-12-17T04:39:52.815Z,-4.80
2022-12-17T04:44:12.844Z,-4.80
2022-12-17T04:48:33.079Z,-5.00
2022-12-17T04:52:53.174Z,-5.20
2022-12-17T04:57:13.241Z,-5.30
2022-12-17T05:01:33.569Z,-5.30
2022-12-17T05:05:54.105Z,-5.50
2022-12-17T05:10:14.248Z,-5.60
2022-12-17T05:14:34.842Z,-5.70
2022-12-17T05:18:54.828Z,-5.60
2022-12-17T05:23:15.071Z,-5.60
2022-12-17T05:27:35.149Z,-5.40
2022-12-17T05:31:55.150Z,-5.40
2022-12-17T05:36:17.787Z,-5.70
2022-12-17T05:40:37.969Z,-5.50
2022-12-17T05:44:58.170Z,-5.70
2022-12-17T05:49:18.049Z,-5.60
2022-12-17T05:53:38.564Z,-5.60
2022-12-17T05:57:58.858Z,-5.60
2022-12-17T06:02:19.152Z,-5.50
2022-12-17T06:06:39.379Z,-5.40
2022-12-17T06:10:59.417Z,-5.50
2022-12-17T06:15:19.397Z,-5.40
2022-12-17T06:19:39.501Z,-5.30
2022-12-17T06:23:59.590Z,-5.40
2022-12-17T06:28:20.420Z,-5.70
2022-12-17T06:32:40.590Z,-5.80
2022-12-17T06:37:08.167Z,-5.80
2022-12-17T06:41:28.323Z,-5.70
2022-12-17T06:45:48.252Z,-6.10
2022-12-17T06:50:08.369Z,-6.30
2022-12-17T06:54:28.286Z,-6.40
2022-12-17T06:58:48.391Z,-6.10
2022-12-17T07:03:14.823Z,-6.00
2022-12-17T07:07:35.218Z,-5.90
2022-12-17T07:11:55.396Z,-5.80
2022-12-17T07:16:15.404Z,-6.00
2022-12-17T07:20:35.597Z,-6.10
2022-12-17T07:24:55.661Z,-6.00
2022-12-17T07:29:15.617Z,-6.30
2022-12-17T07:33:36.033Z,-6.40
2022-12-17T07:37:56.301Z,-6.30
2022-12-17T07:42:16.462Z,-6.30
2022-12-17T07:46:37.748Z,-6.40
2022-12-17T07:50:57.963Z,-6.20
2022-12-17T07:55:18.494Z,-6.40
2022-12-17T07:59:38.673Z,-6.40
2022-12-17T08:03:58.548Z,-6.50
2022-12-17T08:08:25.103Z,-6.40
2022-12-17T08:12:45.103Z,-6.60
2022-12-17T08:17:05.305Z,-6.50
2022-12-17T08:21:25.725Z,-6.40
2022-12-17T08:25:46.354Z,-5.70
2022-12-17T08:30:20.340Z,-5.90
2022-12-17T08:34:40.357Z,-5.80
2022-12-17T08:39:00.453Z,-5.60
2022-12-17T08:43:20.612Z,-5.40
2022-12-17T08:47:40.687Z,-5.30
2022-12-17T08:52:00.840Z,-5.20
2022-12-17T08:56:39.931Z,-5.00
2022-12-17T09:01:00.282Z,-4.80
2022-12-17T09:05:20.417Z,-4.60
2022-12-17T09:09:40.583Z,-4.50
2022-12-17T09:14:00.479Z,-4.30
2022-12-17T09:18:20.642Z,-4.30
2022-12-17T09:22:40.906Z,-4.10
2022-12-17T09:27:01.255Z,-4.20
2022-12-17T09:31:21.566Z,-4.10
2022-12-17T09:35:41.862Z,-3.80
2022-12-17T09:40:01.891Z,-3.60
2022-12-17T09:44:42.070Z,-3.50
2022-12-17T09:49:05.454Z,-3.50
2022-12-17T09:53:36.668Z,-3.40
2022-12-17T09:57:57.301Z,-3.30
2022-12-17T10:02:17.630Z,-3.20
2022-12-17T10:06:40.479Z,-3.10
2022-12-17T10:11:02.621Z,-3.10
2022-12-17T10:15:23.646Z,-2.80
2022-12-17T10:19:55.514Z,-2.70
2022-12-17T10:24:25.888Z,-2.60
2022-12-17T10:28:50.723Z,-2.40
2022-12-17T10:33:14.482Z,-2.30
2022-12-17T10:37:39.253Z,-2.20
2022-12-17T10:42:14.544Z,-2.00
2022-12-17T10:46:49.305Z,-1.90
2022-12-17T10:51:09.556Z,-1.80
2022-12-17T10:55:39.371Z,-1.80
2022-12-17T10:59:59.733Z,-1.80
2022-12-17T11:04:39.671Z,-2.10
2022-12-17T11:09:00.177Z,-2.10
2022-12-17T11:13:23.629Z,-2.20
2022-12-17T11:17:44.231Z,-2.40
2022-12-17T11:22:11.372Z,-2.30
2022-12-17T11:26:33.439Z,-2.00
2022-12-17T11:31:03.982Z,-2.10
2022-12-17T11:35:37.857Z,-1.90
2022-12-17T11:40:21.444Z,-1.90
2022-12-17T11:44:44.623Z,-1.80
2022-12-17T11:49:07.782Z,-1.90
2022-12-17T11:53:40.333Z,-1.80
2022-12-17T11:58:14.597Z,-1.90
2022-12-17T12:02:51.636Z,-1.80
2022-12-17T12:07:15.179Z,-1.80
2022-12-17T12:11:54.142Z,-1.60
2022-12-17T12:16:14.957Z,-1.60
2022-12-17T12:20:41.282Z,-1.60
2022-12-17T12:25:20.894Z,-1.70
2022-12-17T12:29:41.077Z,-1.60
2022-12-17T12:34:06.249Z,-1.60
2022-12-17T12:38:34.977Z,-1.60
2022-12-17T12:43:03.329Z,-1.70
2022-12-17T12:47:31.440Z,-1.70
2022-12-17T12:51:55.056Z,-1.60
2022-12-17T12:56:15.804Z,-1.60
2022-12-17T13:00:56.320Z,-1.60
2022-12-17T13:10:16.612Z,-1.50
2022-12-17T13:14:24.190Z,-1.40
2022-12-17T13:18:31.852Z,-1.30
2022-12-17T13:22:33.839Z,-1.20
2022-12-17T13:26:41.686Z,-1.30
2022-12-17T13:30:43.282Z,-1.30
2022-12-17T13:35:09.818Z,-1.20
2022-12-17T13:39:47.700Z,-1.10
2022-12-17T13:43:53.459Z,-1.20
2022-12-17T13:47:56.387Z,-1.10
2022-12-17T13:52:09.653Z,-1.10
2022-12-17T13:56:13.348Z,-1.00
2022-12-17T14:00:25.769Z,-0.90
2022-12-17T14:04:28.347Z,-0.90
2022-12-17T14:08:32.195Z,-0.90
2022-12-17T14:12:35.408Z,-0.90
2022-12-17T14:16:37.359Z,-0.80
2022-12-17T14:20:40.144Z,-0.90
2022-12-17T14:24:41.837Z,-1.00
2022-12-17T14:28:50.391Z,-0.90
2022-12-17T14:32:52.632Z,-1.00
2022-12-17T14:37:00.846Z,-1.10
2022-12-17T14:41:36.656Z,-1.00
2022-12-17T14:45:58.369Z,-1.00
2022-12-17T14:50:02.666Z,-1.10
2022-12-17T14:54:13.587Z,-1.20
2022-12-17T14:58:16.658Z,-1.30
2022-12-17T15:02:24.135Z,-1.30
2022-12-17T15:06:26.934Z,-1.50
2022-12-17T15:10:28.893Z,-1.50
2022-12-17T15:14:30.501Z,-1.60
2022-12-17T15:18:32.313Z,-1.70
2022-12-17T15:22:35.228Z,-1.70
2022-12-17T15:26:36.894Z,-1.80
2022-12-17T15:30:40.094Z,-1.80
2022-12-17T15:34:41.786Z,-2.00
2022-12-17T18:59:45.998Z,-3.20
2022-12-17T19:03:49.596Z,-3.20
2022-12-17T19:07:51.222Z,-3.30
2022-12-17T19:11:53.147Z,-3.30
2022-12-17T19:15:54.764Z,-3.40
2022-12-17T19:19:56.346Z,-3.40
2022-12-17T19:23:58.941Z,-3.50
2022-12-17T19:28:00.538Z,-3.50
2022-12-17T19:32:02.232Z,-3.60
2022-12-17T19:36:05.257Z,-3.60
2022-12-17T19:40:07.181Z,-3.70
2022-12-17T19:44:11.349Z,-3.80
2022-12-17T19:48:16.855Z,-3.80
2022-12-17T19:52:18.522Z,-3.80
2022-12-17T19:56:20.134Z,-3.90
2022-12-17T20:00:21.714Z,-4.00
2022-12-17T20:04:23.614Z,-4.10
2022-12-17T20:08:25.245Z,-4.20
2022-12-17T20:12:26.862Z,-4.40
2022-12-17T20:16:29.678Z,-4.40
2022-12-17T20:20:31.316Z,-4.40
2022-12-17T20:24:32.995Z,-4.60
2022-12-17T20:28:34.604Z,-4.60
2022-12-17T20:32:37.328Z,-4.70
2022-12-17T20:36:40.730Z,-4.60
2022-12-17T20:40:42.420Z,-4.50
2022-12-17T20:44:47.398Z,-4.70
2022-12-17T20:48:52.050Z,-4.90
2022-12-17T20:52:53.653Z,-4.80
2022-12-17T20:56:55.286Z,-4.90
2022-12-17T21:01:07.864Z,-5.00
2022-12-17T21:05:10.227Z,-4.80
2022-12-17T21:09:12.990Z,-4.70
2022-12-17T21:13:29.845Z,-4.90
2022-12-17T21:17:31.401Z,-5.10
2022-12-17T21:21:34.377Z,-5.00
2022-12-17T21:25:36.012Z,-5.00
2022-12-17T21:29:37.591Z,-5.00
2022-12-17T21:33:39.185Z,-5.10
2022-12-17T21:37:41.852Z,-5.20
2022-12-17T21:42:04.557Z,-5.20
2022-12-17T21:46:07.487Z,-5.20
2022-12-17T21:50:09.379Z,-5.20
2022-12-17T21:54:15.684Z,-5.20
2022-12-17T21:58:22.087Z,-5.10
2022-12-17T22:02:23.821Z,-5.20
2022-12-17T22:06:31.652Z,-5.10
2022-12-17T22:10:52.475Z,-5.10
2022-12-17T22:14:54.353Z,-5.10
2022-12-17T22:18:57.938Z,-5.10
2022-12-17T22:22:59.971Z,-5.10
2022-12-17T22:27:03.222Z,-5.00
2022-12-17T22:31:26.881Z,-5.10
2022-12-17T22:36:35.418Z,-5.20
2022-12-17T22:44:22.555Z,-5.00
2022-12-17T22:44:46.624Z,-5.10
2022-12-17T22:48:41.091Z,-5.00
2022-12-17T22:52:43.355Z,-5.00
2022-12-17T22:57:33.329Z,-4.90
2022-12-17T23:01:07.727Z,-4.90
2022-12-17T23:05:09.525Z,-4.80
2022-12-17T23:09:12.155Z,-4.70
2022-12-17T23:13:13.880Z,-4.50
2022-12-17T23:17:15.492Z,-4.20
2022-12-17T23:21:18.872Z,-3.80
2022-12-17T23:25:20.946Z,-3.70
2022-12-17T23:29:22.629Z,-3.50
2022-12-17T23:33:25.351Z,-3.50
2022-12-17T23:37:27.059Z,-3.40
2022-12-17T23:41:29.970Z,-3.30
2022-12-17T23:45:31.911Z,-3.20
2022-12-17T23:49:33.559Z,-3.10
2022-12-17T23:53:35.862Z,-3.10
2022-12-17T23:57:37.627Z,-3.30
